sensor_id;sensor_type;location;lat;lon;timestamp;pressure;altitude;pressure_sealevel;temperature;humidity
32733;BME280;11867;51.198;11.966;2023-08-06T00:00:05;99647.59;;;19.88;89.05
32733;BME280;11867;51.198;11.966;2023-08-06T00:01:30;99640.53;;;19.90;89.09
32733;BME280;11867;51.198;11.966;2023-08-06T00:02:52;99650.94;;;19.78;88.73
32733;BME280;11867;51.198;11.966;2023-08-06T00:04:15;99638.78;;;19.82;89.29
32733;BME280;11867;51.198;11.966;2023-08-06T00:05:41;99643.44;;;19.78;89.53
32733;BME280;11867;51.198;11.966;2023-08-06T00:07:04;99643.06;;;19.80;89.42
32733;BME280;11867;51.198;11.966;2023-08-06T00:08:26;99640.66;;;19.62;90.07
32733;BME280;11867;51.198;11.966;2023-08-06T00:09:49;99643.97;;;19.52;90.68
32733;BME280;11867;51.198;11.966;2023-08-06T00:11:11;99644.78;;;19.36;91.76
32733;BME280;11867;51.198;11.966;2023-08-06T00:12:35;99643.44;;;19.46;91.30
32733;BME280;11867;51.198;11.966;2023-08-06T00:13:57;99644.78;;;19.52;91.04
32733;BME280;11867;51.198;11.966;2023-08-06T00:15:20;99640.66;;;19.62;90.28
32733;BME280;11867;51.198;11.966;2023-08-06T00:16:43;99636.22;;;19.26;92.31
32733;BME280;11867;51.198;11.966;2023-08-06T00:18:06;99629.03;;;18.77;95.86
32733;BME280;11867;51.198;11.966;2023-08-06T00:19:28;99626.88;;;19.14;94.12
32733;BME280;11867;51.198;11.966;2023-08-06T00:20:53;99626.31;;;19.09;94.46
32733;BME280;11867;51.198;11.966;2023-08-06T00:22:15;99624.88;;;18.99;93.92
32733;BME280;11867;51.198;11.966;2023-08-06T00:23:39;99627.25;;;18.85;93.72
32733;BME280;11867;51.198;11.966;2023-08-06T00:25:01;99627.66;;;18.43;96.48
32733;BME280;11867;51.198;11.966;2023-08-06T00:26:24;99626.41;;;18.68;96.05
32733;BME280;11867;51.198;11.966;2023-08-06T00:27:46;99624.81;;;18.67;95.56
32733;BME280;11867;51.198;11.966;2023-08-06T00:29:09;99627.03;;;18.33;97.26
32733;BME280;11867;51.198;11.966;2023-08-06T00:30:31;99621.69;;;18.41;97.34
32733;BME280;11867;51.198;11.966;2023-08-06T00:31:54;99625.53;;;18.52;96.98
32733;BME280;11867;51.198;11.966;2023-08-06T00:33:17;99617.25;;;18.52;96.09
32733;BME280;11867;51.198;11.966;2023-08-06T00:34:40;99616.19;;;18.41;96.25
32733;BME280;11867;51.198;11.966;2023-08-06T00:36:03;99608.63;;;18.53;96.14
32733;BME280;11867;51.198;11.966;2023-08-06T00:37:26;99614.22;;;18.69;95.49
32733;BME280;11867;51.198;11.966;2023-08-06T00:38:48;99607.41;;;18.79;94.24
32733;BME280;11867;51.198;11.966;2023-08-06T00:40:11;99610.84;;;18.76;94.03
32733;BME280;11867;51.198;11.966;2023-08-06T00:41:33;99618.38;;;18.91;93.38
32733;BME280;11867;51.198;11.966;2023-08-06T00:42:56;99615.91;;;19.02;92.99
32733;BME280;11867;51.198;11.966;2023-08-06T00:44:18;99621.50;;;18.90;93.80
32733;BME280;11867;51.198;11.966;2023-08-06T00:45:41;99623.81;;;19.04;92.85
32733;BME280;11867;51.198;11.966;2023-08-06T00:47:05;99625.94;;;18.94;92.69
32733;BME280;11867;51.198;11.966;2023-08-06T00:48:29;99625.22;;;18.82;92.17
32733;BME280;11867;51.198;11.966;2023-08-06T00:49:51;99620.88;;;18.68;92.22
32733;BME280;11867;51.198;11.966;2023-08-06T00:51:16;99622.16;;;18.71;91.98
32733;BME280;11867;51.198;11.966;2023-08-06T00:52:38;99622.03;;;18.67;91.46
32733;BME280;11867;51.198;11.966;2023-08-06T00:54:02;99620.44;;;18.66;91.38
32733;BME280;11867;51.198;11.966;2023-08-06T00:55:24;99613.16;;;18.74;91.39
32733;BME280;11867;51.198;11.966;2023-08-06T00:56:47;99618.97;;;18.85;90.98
32733;BME280;11867;51.198;11.966;2023-08-06T00:58:09;99607.84;;;18.97;89.72
32733;BME280;11867;51.198;11.966;2023-08-06T00:59:32;99616.16;;;18.97;88.49
32733;BME280;11867;51.198;11.966;2023-08-06T01:00:55;99620.53;;;18.98;88.11
32733;BME280;11867;51.198;11.966;2023-08-06T01:02:18;99609.66;;;18.89;87.55
32733;BME280;11867;51.198;11.966;2023-08-06T01:03:40;99609.03;;;18.96;86.91
32733;BME280;11867;51.198;11.966;2023-08-06T01:05:04;99599.03;;;19.07;86.44
32733;BME280;11867;51.198;11.966;2023-08-06T01:06:34;99607.78;;;19.09;86.50
32733;BME280;11867;51.198;11.966;2023-08-06T01:08:09;99602.44;;;19.17;85.09
32733;BME280;11867;51.198;11.966;2023-08-06T01:09:44;99593.78;;;19.02;86.09
32733;BME280;11867;51.198;11.966;2023-08-06T01:11:15;99596.28;;;19.07;86.93
32733;BME280;11867;51.198;11.966;2023-08-06T01:12:47;99598.59;;;19.05;86.90
32733;BME280;11867;51.198;11.966;2023-08-06T01:14:15;99591.19;;;19.09;86.40
32733;BME280;11867;51.198;11.966;2023-08-06T01:15:46;99587.66;;;19.25;85.65
32733;BME280;11867;51.198;11.966;2023-08-06T01:17:09;99588.69;;;19.36;84.76
32733;BME280;11867;51.198;11.966;2023-08-06T01:18:32;99580.94;;;19.26;84.34
32733;BME280;11867;51.198;11.966;2023-08-06T01:19:55;99581.84;;;19.30;84.47
32733;BME280;11867;51.198;11.966;2023-08-06T01:21:19;99583.06;;;19.32;84.93
32733;BME280;11867;51.198;11.966;2023-08-06T01:22:42;99580.31;;;19.32;84.90
32733;BME280;11867;51.198;11.966;2023-08-06T01:24:04;99573.00;;;19.24;84.73
32733;BME280;11867;51.198;11.966;2023-08-06T01:25:41;99574.19;;;19.23;85.22
32733;BME280;11867;51.198;11.966;2023-08-06T01:27:09;99568.81;;;19.30;84.91
32733;BME280;11867;51.198;11.966;2023-08-06T01:28:40;99578.81;;;19.35;84.67
32733;BME280;11867;51.198;11.966;2023-08-06T01:30:07;99570.34;;;19.28;84.78
32733;BME280;11867;51.198;11.966;2023-08-06T01:31:36;99567.56;;;19.28;84.15
32733;BME280;11867;51.198;11.966;2023-08-06T01:33:00;99573.19;;;19.15;84.85
32733;BME280;11867;51.198;11.966;2023-08-06T01:34:28;99574.72;;;19.13;85.05
32733;BME280;11867;51.198;11.966;2023-08-06T01:35:53;99576.94;;;19.07;85.51
32733;BME280;11867;51.198;11.966;2023-08-06T01:37:18;99579.88;;;18.83;85.99
32733;BME280;11867;51.198;11.966;2023-08-06T01:38:41;99581.25;;;18.32;88.88
32733;BME280;11867;51.198;11.966;2023-08-06T01:40:06;99576.81;;;18.44;88.62
32733;BME280;11867;51.198;11.966;2023-08-06T01:41:28;99576.63;;;18.08;90.04
32733;BME280;11867;51.198;11.966;2023-08-06T01:42:51;99582.75;;;18.30;89.39
32733;BME280;11867;51.198;11.966;2023-08-06T01:44:13;99578.63;;;18.52;88.42
32733;BME280;11867;51.198;11.966;2023-08-06T01:45:37;99570.13;;;18.73;87.10
32733;BME280;11867;51.198;11.966;2023-08-06T01:46:59;99567.44;;;18.61;87.72
32733;BME280;11867;51.198;11.966;2023-08-06T01:48:22;99562.44;;;18.66;87.18
32733;BME280;11867;51.198;11.966;2023-08-06T01:49:44;99567.44;;;18.76;86.22
32733;BME280;11867;51.198;11.966;2023-08-06T01:51:07;99567.69;;;18.84;86.04
32733;BME280;11867;51.198;11.966;2023-08-06T01:52:30;99560.72;;;18.90;85.64
32733;BME280;11867;51.198;11.966;2023-08-06T01:53:53;99562.06;;;18.96;85.41
32733;BME280;11867;51.198;11.966;2023-08-06T01:55:15;99567.69;;;18.84;85.83
32733;BME280;11867;51.198;11.966;2023-08-06T01:56:39;99569.47;;;18.92;85.76
32733;BME280;11867;51.198;11.966;2023-08-06T01:58:01;99567.81;;;18.75;86.43
32733;BME280;11867;51.198;11.966;2023-08-06T01:59:24;99568.63;;;18.75;86.37
32733;BME280;11867;51.198;11.966;2023-08-06T02:00:46;99565.09;;;18.47;87.84
32733;BME280;11867;51.198;11.966;2023-08-06T02:02:09;99567.50;;;18.64;86.98
32733;BME280;11867;51.198;11.966;2023-08-06T02:03:31;99565.66;;;18.68;86.96
32733;BME280;11867;51.198;11.966;2023-08-06T02:04:55;99563.91;;;18.48;87.87
32733;BME280;11867;51.198;11.966;2023-08-06T02:06:17;99559.63;;;18.34;88.39
32733;BME280;11867;51.198;11.966;2023-08-06T02:07:41;99549.88;;;18.53;87.19
32733;BME280;11867;51.198;11.966;2023-08-06T02:09:03;99550.84;;;18.45;88.48
32733;BME280;11867;51.198;11.966;2023-08-06T02:10:26;99544.41;;;18.12;90.27
32733;BME280;11867;51.198;11.966;2023-08-06T02:11:48;99545.66;;;18.27;89.49
32733;BME280;11867;51.198;11.966;2023-08-06T02:13:11;99544.59;;;18.48;88.79
32733;BME280;11867;51.198;11.966;2023-08-06T02:14:34;99537.59;;;18.50;88.44
32733;BME280;11867;51.198;11.966;2023-08-06T02:15:56;99535.53;;;18.47;87.54
32733;BME280;11867;51.198;11.966;2023-08-06T02:17:18;99536.69;;;18.46;88.04
32733;BME280;11867;51.198;11.966;2023-08-06T02:18:41;99529.91;;;18.44;88.57
32733;BME280;11867;51.198;11.966;2023-08-06T02:20:05;99534.31;;;18.61;88.05
32733;BME280;11867;51.198;11.966;2023-08-06T02:21:28;99532.53;;;18.68;87.17
32733;BME280;11867;51.198;11.966;2023-08-06T02:22:51;99519.13;;;18.39;88.46
32733;BME280;11867;51.198;11.966;2023-08-06T02:24:14;99524.81;;;18.46;89.20
32733;BME280;11867;51.198;11.966;2023-08-06T02:25:36;99522.72;;;18.55;88.92
32733;BME280;11867;51.198;11.966;2023-08-06T02:26:59;99524.50;;;18.63;88.87
32733;BME280;11867;51.198;11.966;2023-08-06T02:28:21;99512.16;;;18.73;87.93
32733;BME280;11867;51.198;11.966;2023-08-06T02:29:44;99510.09;;;18.70;88.03
32733;BME280;11867;51.198;11.966;2023-08-06T02:31:06;99508.56;;;17.84;91.51
32733;BME280;11867;51.198;11.966;2023-08-06T02:32:29;99517.38;;;16.88;98.57
32733;BME280;11867;51.198;11.966;2023-08-06T02:33:53;99513.88;;;16.54;100.00
32733;BME280;11867;51.198;11.966;2023-08-06T02:35:16;99505.63;;;16.54;100.00
32733;BME280;11867;51.198;11.966;2023-08-06T02:36:38;99508.31;;;17.00;100.00
32733;BME280;11867;51.198;11.966;2023-08-06T02:38:03;99510.25;;;17.24;99.39
32733;BME280;11867;51.198;11.966;2023-08-06T02:39:25;99498.72;;;17.59;96.40
32733;BME280;11867;51.198;11.966;2023-08-06T02:40:48;99502.19;;;17.55;94.81
32733;BME280;11867;51.198;11.966;2023-08-06T02:42:10;99501.09;;;17.72;93.69
32733;BME280;11867;51.198;11.966;2023-08-06T02:43:33;99491.31;;;17.87;93.54
32733;BME280;11867;51.198;11.966;2023-08-06T02:44:55;99499.53;;;18.00;92.73
32733;BME280;11867;51.198;11.966;2023-08-06T02:46:18;99493.34;;;18.19;91.62
32733;BME280;11867;51.198;11.966;2023-08-06T02:47:40;99498.03;;;18.30;90.87
32733;BME280;11867;51.198;11.966;2023-08-06T02:49:03;99496.59;;;18.37;90.23
32733;BME280;11867;51.198;11.966;2023-08-06T02:50:25;99492.41;;;18.27;91.69
32733;BME280;11867;51.198;11.966;2023-08-06T02:51:48;99486.16;;;18.14;92.58
32733;BME280;11867;51.198;11.966;2023-08-06T02:53:11;99498.81;;;18.15;92.72
32733;BME280;11867;51.198;11.966;2023-08-06T02:54:34;99487.25;;;18.25;91.81
32733;BME280;11867;51.198;11.966;2023-08-06T02:55:56;99490.28;;;18.36;91.34
32733;BME280;11867;51.198;11.966;2023-08-06T02:57:20;99488.50;;;18.28;92.02
32733;BME280;11867;51.198;11.966;2023-08-06T02:58:42;99494.28;;;17.94;93.82
32733;BME280;11867;51.198;11.966;2023-08-06T03:00:06;99490.81;;;17.57;96.51
32733;BME280;11867;51.198;11.966;2023-08-06T03:01:29;99494.06;;;17.47;97.83
32733;BME280;11867;51.198;11.966;2023-08-06T03:02:52;99491.47;;;17.66;96.89
32733;BME280;11867;51.198;11.966;2023-08-06T03:04:15;99501.41;;;17.43;97.51
32733;BME280;11867;51.198;11.966;2023-08-06T03:05:39;99487.06;;;17.78;95.70
32733;BME280;11867;51.198;11.966;2023-08-06T03:07:01;99494.94;;;18.04;93.47
32733;BME280;11867;51.198;11.966;2023-08-06T03:08:26;99490.47;;;17.99;92.94
32733;BME280;11867;51.198;11.966;2023-08-06T03:09:48;99497.22;;;18.02;92.83
32733;BME280;11867;51.198;11.966;2023-08-06T03:11:10;99488.84;;;17.98;92.68
32733;BME280;11867;51.198;11.966;2023-08-06T03:12:34;99492.84;;;18.13;92.20
32733;BME280;11867;51.198;11.966;2023-08-06T03:13:56;99493.97;;;18.12;91.96
32733;BME280;11867;51.198;11.966;2023-08-06T03:15:18;99491.66;;;18.14;91.02
32733;BME280;11867;51.198;11.966;2023-08-06T03:16:42;99489.25;;;18.12;92.28
32733;BME280;11867;51.198;11.966;2023-08-06T03:18:04;99485.53;;;18.21;91.80
32733;BME280;11867;51.198;11.966;2023-08-06T03:19:27;99487.59;;;18.24;91.66
32733;BME280;11867;51.198;11.966;2023-08-06T03:20:49;99478.75;;;18.18;92.03
32733;BME280;11867;51.198;11.966;2023-08-06T03:22:12;99482.13;;;18.11;91.78
32733;BME280;11867;51.198;11.966;2023-08-06T03:23:36;99480.22;;;18.28;91.34
32733;BME280;11867;51.198;11.966;2023-08-06T03:24:59;99474.09;;;18.06;92.30
32733;BME280;11867;51.198;11.966;2023-08-06T03:26:21;99477.75;;;18.10;92.17
32733;BME280;11867;51.198;11.966;2023-08-06T03:28:08;99473.03;;;17.95;93.46
32733;BME280;11867;51.198;11.966;2023-08-06T03:29:31;99475.81;;;18.11;92.91
32733;BME280;11867;51.198;11.966;2023-08-06T03:30:59;99470.50;;;18.18;92.55
32733;BME280;11867;51.198;11.966;2023-08-06T03:32:22;99469.19;;;18.28;92.33
32733;BME280;11867;51.198;11.966;2023-08-06T03:33:44;99467.13;;;18.25;92.70
32733;BME280;11867;51.198;11.966;2023-08-06T03:35:07;99459.47;;;18.18;92.83
32733;BME280;11867;51.198;11.966;2023-08-06T03:36:29;99464.97;;;18.18;92.46
32733;BME280;11867;51.198;11.966;2023-08-06T03:37:52;99461.81;;;18.32;91.98
32733;BME280;11867;51.198;11.966;2023-08-06T03:39:16;99463.22;;;18.42;91.35
32733;BME280;11867;51.198;11.966;2023-08-06T03:40:38;99461.53;;;18.37;91.85
32733;BME280;11867;51.198;11.966;2023-08-06T03:42:00;99458.75;;;18.21;92.38
32733;BME280;11867;51.198;11.966;2023-08-06T03:43:24;99460.63;;;18.17;93.07
32733;BME280;11867;51.198;11.966;2023-08-06T03:44:46;99455.28;;;18.24;92.74
32733;BME280;11867;51.198;11.966;2023-08-06T03:46:09;99465.19;;;18.25;92.90
32733;BME280;11867;51.198;11.966;2023-08-06T03:47:31;99464.00;;;18.26;92.92
32733;BME280;11867;51.198;11.966;2023-08-06T03:48:54;99464.72;;;18.23;93.02
32733;BME280;11867;51.198;11.966;2023-08-06T03:50:16;99469.75;;;18.05;94.47
32733;BME280;11867;51.198;11.966;2023-08-06T03:51:39;99466.28;;;18.08;94.49
32733;BME280;11867;51.198;11.966;2023-08-06T03:53:01;99466.91;;;18.02;94.86
32733;BME280;11867;51.198;11.966;2023-08-06T03:54:26;99461.88;;;17.91;95.18
32733;BME280;11867;51.198;11.966;2023-08-06T03:55:48;99463.44;;;17.64;96.98
32733;BME280;11867;51.198;11.966;2023-08-06T03:57:11;99468.28;;;17.67;97.07
32733;BME280;11867;51.198;11.966;2023-08-06T03:58:33;99469.25;;;17.75;97.09
32733;BME280;11867;51.198;11.966;2023-08-06T03:59:56;99468.50;;;17.62;97.53
32733;BME280;11867;51.198;11.966;2023-08-06T04:01:18;99469.19;;;17.19;100.00
32733;BME280;11867;51.198;11.966;2023-08-06T04:02:41;99474.13;;;17.13;100.00
32733;BME280;11867;51.198;11.966;2023-08-06T04:04:03;99465.22;;;17.44;100.00
32733;BME280;11867;51.198;11.966;2023-08-06T04:05:26;99465.16;;;17.69;99.15
32733;BME280;11867;51.198;11.966;2023-08-06T04:06:48;99461.97;;;17.54;98.77
32733;BME280;11867;51.198;11.966;2023-08-06T04:08:11;99459.66;;;17.16;100.00
32733;BME280;11867;51.198;11.966;2023-08-06T04:09:51;99449.97;;;17.47;100.00
32733;BME280;11867;51.198;11.966;2023-08-06T04:11:14;99460.97;;;17.59;99.89
32733;BME280;11867;51.198;11.966;2023-08-06T04:12:37;99460.84;;;17.55;99.53
32733;BME280;11867;51.198;11.966;2023-08-06T04:14:01;99456.94;;;17.44;100.00
32733;BME280;11867;51.198;11.966;2023-08-06T04:15:24;99465.56;;;17.55;99.76
32733;BME280;11867;51.198;11.966;2023-08-06T04:16:45;99452.28;;;17.73;98.80
32733;BME280;11867;51.198;11.966;2023-08-06T04:18:09;99453.44;;;17.84;98.15
32733;BME280;11867;51.198;11.966;2023-08-06T04:19:31;99459.47;;;17.90;98.17
32733;BME280;11867;51.198;11.966;2023-08-06T04:20:53;99458.16;;;18.00;96.30
32733;BME280;11867;51.198;11.966;2023-08-06T04:22:17;99457.25;;;17.95;95.88
32733;BME280;11867;51.198;11.966;2023-08-06T04:23:40;99452.03;;;17.78;97.01
32733;BME280;11867;51.198;11.966;2023-08-06T04:25:05;99459.34;;;17.99;96.61
32733;BME280;11867;51.198;11.966;2023-08-06T04:26:28;99454.44;;;18.08;95.87
32733;BME280;11867;51.198;11.966;2023-08-06T04:27:50;99460.63;;;18.17;95.62
32733;BME280;11867;51.198;11.966;2023-08-06T04:29:13;99437.28;;;18.14;95.98
32733;BME280;11867;51.198;11.966;2023-08-06T04:30:36;99443.25;;;18.17;94.49
32733;BME280;11867;51.198;11.966;2023-08-06T04:32:00;99455.03;;;18.29;94.18
32733;BME280;11867;51.198;11.966;2023-08-06T04:33:22;99443.63;;;18.15;93.80
32733;BME280;11867;51.198;11.966;2023-08-06T04:34:46;99447.53;;;18.14;94.88
32733;BME280;11867;51.198;11.966;2023-08-06T04:36:08;99454.16;;;17.97;96.08
32733;BME280;11867;51.198;11.966;2023-08-06T04:37:35;99450.78;;;18.04;95.38
32733;BME280;11867;51.198;11.966;2023-08-06T04:38:57;99451.97;;;18.19;94.85
32733;BME280;11867;51.198;11.966;2023-08-06T04:40:23;99446.22;;;17.95;96.29
32733;BME280;11867;51.198;11.966;2023-08-06T04:41:45;99450.22;;;17.70;98.58
32733;BME280;11867;51.198;11.966;2023-08-06T04:43:08;99449.09;;;17.59;99.50
32733;BME280;11867;51.198;11.966;2023-08-06T04:44:30;99440.50;;;17.60;99.45
32733;BME280;11867;51.198;11.966;2023-08-06T04:45:54;99448.00;;;17.47;100.00
32733;BME280;11867;51.198;11.966;2023-08-06T04:47:16;99445.41;;;17.67;99.88
32733;BME280;11867;51.198;11.966;2023-08-06T04:48:41;99440.91;;;17.74;98.46
32733;BME280;11867;51.198;11.966;2023-08-06T04:50:05;99443.97;;;17.85;98.23
32733;BME280;11867;51.198;11.966;2023-08-06T04:51:28;99438.50;;;18.01;97.04
32733;BME280;11867;51.198;11.966;2023-08-06T04:52:51;99450.84;;;18.20;96.04
32733;BME280;11867;51.198;11.966;2023-08-06T04:54:16;99446.47;;;18.34;94.46
32733;BME280;11867;51.198;11.966;2023-08-06T04:55:42;99447.44;;;18.26;95.05
32733;BME280;11867;51.198;11.966;2023-08-06T04:57:05;99445.69;;;18.34;94.92
32733;BME280;11867;51.198;11.966;2023-08-06T04:58:28;99443.09;;;18.25;94.75
32733;BME280;11867;51.198;11.966;2023-08-06T04:59:55;99430.03;;;18.38;95.00
32733;BME280;11867;51.198;11.966;2023-08-06T05:01:17;99436.06;;;18.44;95.16
32733;BME280;11867;51.198;11.966;2023-08-06T05:02:40;99436.06;;;18.44;93.69
32733;BME280;11867;51.198;11.966;2023-08-06T05:04:03;99441.13;;;18.42;94.63
32733;BME280;11867;51.198;11.966;2023-08-06T05:05:27;99442.41;;;18.44;95.32
32733;BME280;11867;51.198;11.966;2023-08-06T05:06:53;99438.25;;;18.06;95.28
32733;BME280;11867;51.198;11.966;2023-08-06T05:08:18;99450.34;;;18.02;95.83
32733;BME280;11867;51.198;11.966;2023-08-06T05:09:40;99434.50;;;17.99;95.94
32733;BME280;11867;51.198;11.966;2023-08-06T05:11:07;99448.09;;;17.91;96.55
32733;BME280;11867;51.198;11.966;2023-08-06T05:12:29;99441.22;;;17.85;97.10
32733;BME280;11867;51.198;11.966;2023-08-06T05:13:53;99436.72;;;17.93;96.51
32733;BME280;11867;51.198;11.966;2023-08-06T05:15:16;99431.25;;;18.25;95.12
32733;BME280;11867;51.198;11.966;2023-08-06T05:16:39;99440.16;;;18.34;94.61
32733;BME280;11867;51.198;11.966;2023-08-06T05:18:01;99442.13;;;18.33;93.51
32733;BME280;11867;51.198;11.966;2023-08-06T05:19:25;99438.31;;;18.38;93.16
32733;BME280;11867;51.198;11.966;2023-08-06T05:20:49;99436.59;;;18.49;93.16
32733;BME280;11867;51.198;11.966;2023-08-06T05:22:12;99437.38;;;18.18;93.53
32733;BME280;11867;51.198;11.966;2023-08-06T05:23:36;99446.84;;;18.17;94.30
32733;BME280;11867;51.198;11.966;2023-08-06T05:24:58;99437.91;;;18.08;94.44
32733;BME280;11867;51.198;11.966;2023-08-06T05:26:38;99440.59;;;18.20;94.93
32733;BME280;11867;51.198;11.966;2023-08-06T05:28:08;99439.53;;;18.09;95.95
32733;BME280;11867;51.198;11.966;2023-08-06T05:29:34;99432.94;;;18.13;94.99
32733;BME280;11867;51.198;11.966;2023-08-06T05:30:56;99439.44;;;18.21;94.54
32733;BME280;11867;51.198;11.966;2023-08-06T05:32:20;99438.84;;;18.28;94.67
32733;BME280;11867;51.198;11.966;2023-08-06T05:33:42;99435.88;;;18.21;95.55
32733;BME280;11867;51.198;11.966;2023-08-06T05:35:06;99439.78;;;18.20;95.82
32733;BME280;11867;51.198;11.966;2023-08-06T05:36:29;99440.59;;;18.20;94.71
32733;BME280;11867;51.198;11.966;2023-08-06T05:37:52;99430.44;;;18.24;95.15
32733;BME280;11867;51.198;11.966;2023-08-06T05:39:15;99433.28;;;18.12;95.77
32733;BME280;11867;51.198;11.966;2023-08-06T05:40:38;99433.28;;;18.12;96.16
32733;BME280;11867;51.198;11.966;2023-08-06T05:42:13;99428.13;;;18.26;94.92
32733;BME280;11867;51.198;11.966;2023-08-06T05:43:36;99436.50;;;18.14;95.86
32733;BME280;11867;51.198;11.966;2023-08-06T05:45:02;99430.22;;;18.29;96.06
32733;BME280;11867;51.198;11.966;2023-08-06T05:46:25;99422.81;;;17.89;97.44
32733;BME280;11867;51.198;11.966;2023-08-06T05:48:01;99421.72;;;17.78;97.99
32733;BME280;11867;51.198;11.966;2023-08-06T05:49:52;99417.56;;;17.84;98.89
32733;BME280;11867;51.198;11.966;2023-08-06T05:51:43;99426.47;;;17.93;98.48
32733;BME280;11867;51.198;11.966;2023-08-06T05:53:33;99421.28;;;18.20;96.79
32733;BME280;11867;51.198;11.966;2023-08-06T05:55:24;99410.97;;;18.17;95.83
32733;BME280;11867;51.198;11.966;2023-08-06T06:23:17;99411.25;;;17.84;96.55
32733;BME280;11867;51.198;11.966;2023-08-06T06:24:43;99405.06;;;18.03;96.81
32733;BME280;11867;51.198;11.966;2023-08-06T06:26:06;99400.72;;;18.18;96.10
32733;BME280;11867;51.198;11.966;2023-08-06T06:27:32;99403.59;;;18.21;95.00
32733;BME280;11867;51.198;11.966;2023-08-06T06:28:55;99402.84;;;18.24;94.45
32733;BME280;11867;51.198;11.966;2023-08-06T06:30:18;99393.69;;;18.36;94.34
32733;BME280;11867;51.198;11.966;2023-08-06T06:31:40;99402.06;;;18.24;95.46
32733;BME280;11867;51.198;11.966;2023-08-06T06:33:04;99401.94;;;18.04;95.63
32733;BME280;11867;51.198;11.966;2023-08-06T06:34:28;99393.06;;;18.11;95.36
32733;BME280;11867;51.198;11.966;2023-08-06T06:36:19;99395.75;;;18.23;94.57
32733;BME280;11867;51.198;11.966;2023-08-06T06:37:46;99400.06;;;18.08;95.62
32733;BME280;11867;51.198;11.966;2023-08-06T06:39:10;99401.66;;;17.93;96.11
32733;BME280;11867;51.198;11.966;2023-08-06T06:40:33;99391.88;;;17.96;96.31
32733;BME280;11867;51.198;11.966;2023-08-06T06:41:59;99405.31;;;17.98;96.13
32733;BME280;11867;51.198;11.966;2023-08-06T06:43:26;99397.97;;;18.18;95.81
32733;BME280;11867;51.198;11.966;2023-08-06T06:45:02;99389.41;;;18.23;93.75
32733;BME280;11867;51.198;11.966;2023-08-06T06:46:47;99390.84;;;18.32;94.19
32733;BME280;11867;51.198;11.966;2023-08-06T06:48:29;99381.31;;;18.46;92.98
32733;BME280;11867;51.198;11.966;2023-08-06T06:50:06;99393.34;;;18.38;93.80
32733;BME280;11867;51.198;11.966;2023-08-06T06:51:57;99390.31;;;18.11;95.36
32733;BME280;11867;51.198;11.966;2023-08-06T06:53:20;99390.31;;;18.27;94.60
32733;BME280;11867;51.198;11.966;2023-08-06T06:54:46;99391.66;;;18.49;93.68
32733;BME280;11867;51.198;11.966;2023-08-06T06:56:10;99390.66;;;18.41;93.31
32733;BME280;11867;51.198;11.966;2023-08-06T06:57:34;99393.06;;;18.11;94.94
32733;BME280;11867;51.198;11.966;2023-08-06T06:59:00;99388.97;;;18.37;93.86
32733;BME280;11867;51.198;11.966;2023-08-06T07:00:39;99395.91;;;18.62;93.16
32733;BME280;11867;51.198;11.966;2023-08-06T07:02:29;99392.00;;;18.63;93.27
32733;BME280;11867;51.198;11.966;2023-08-06T07:03:57;99396.81;;;18.34;94.39
32733;BME280;11867;51.198;11.966;2023-08-06T07:05:19;99390.38;;;18.14;95.56
32733;BME280;11867;51.198;11.966;2023-08-06T07:06:43;99396.63;;;18.59;93.82
32733;BME280;11867;51.198;11.966;2023-08-06T07:08:19;99396.72;;;18.63;92.39
32733;BME280;11867;51.198;11.966;2023-08-06T07:09:44;99397.50;;;18.63;92.84
32733;BME280;11867;51.198;11.966;2023-08-06T07:11:40;99392.69;;;18.60;91.21
32733;BME280;11867;51.198;11.966;2023-08-06T07:13:10;99391.19;;;18.63;91.78
32733;BME280;11867;51.198;11.966;2023-08-06T07:14:32;99385.25;;;18.45;92.27
32733;BME280;11867;51.198;11.966;2023-08-06T07:15:55;99395.97;;;17.86;95.27
32733;BME280;11867;51.198;11.966;2023-08-06T07:17:17;99391.03;;;18.24;93.65
32733;BME280;11867;51.198;11.966;2023-08-06T07:18:43;99394.41;;;18.49;92.51
32733;BME280;11867;51.198;11.966;2023-08-06T07:20:13;99391.66;;;18.65;92.22
32733;BME280;11867;51.198;11.966;2023-08-06T07:21:50;99392.28;;;18.42;92.44
32733;BME280;11867;51.198;11.966;2023-08-06T07:23:26;99386.31;;;18.24;93.01
32733;BME280;11867;51.198;11.966;2023-08-06T07:25:03;99394.84;;;18.51;92.95
32733;BME280;11867;51.198;11.966;2023-08-06T07:26:25;99388.59;;;18.70;91.17
32733;BME280;11867;51.198;11.966;2023-08-06T07:28:34;99385.00;;;19.01;90.07
32733;BME280;11867;51.198;11.966;2023-08-06T07:30:07;99380.00;;;19.07;89.78
32733;BME280;11867;51.198;11.966;2023-08-06T07:31:31;99387.50;;;19.06;89.89
32733;BME280;11867;51.198;11.966;2023-08-06T07:32:55;99382.31;;;19.05;88.95
32733;BME280;11867;51.198;11.966;2023-08-06T07:34:17;99378.63;;;19.17;88.29
32733;BME280;11867;51.198;11.966;2023-08-06T07:35:41;99377.25;;;18.91;89.28
32733;BME280;11867;51.198;11.966;2023-08-06T07:37:03;99371.38;;;18.76;89.78
32733;BME280;11867;51.198;11.966;2023-08-06T07:38:29;99382.47;;;19.12;89.35
32733;BME280;11867;51.198;11.966;2023-08-06T07:39:52;99382.63;;;19.00;89.65
32733;BME280;11867;51.198;11.966;2023-08-06T07:41:16;99380.31;;;18.86;89.27
32733;BME280;11867;51.198;11.966;2023-08-06T07:42:38;99381.91;;;18.87;89.53
32733;BME280;11867;51.198;11.966;2023-08-06T07:44:07;99383.97;;;18.90;89.24
32733;BME280;11867;51.198;11.966;2023-08-06T07:45:33;99370.88;;;18.71;89.57
32733;BME280;11867;51.198;11.966;2023-08-06T07:47:10;99390.50;;;19.01;89.50
32733;BME280;11867;51.198;11.966;2023-08-06T07:48:33;99385.00;;;19.01;89.73
32733;BME280;11867;51.198;11.966;2023-08-06T07:49:56;99385.88;;;19.05;89.44
32733;BME280;11867;51.198;11.966;2023-08-06T07:51:22;99383.09;;;19.05;89.12